createdAt,value
2023-03-11T00:00:16.424Z,30.98
2023-03-11T00:02:46.165Z,31.08
2023-03-11T00:05:16.725Z,31.30
2023-03-11T00:07:44.909Z,34.38
2023-03-11T00:10:15.987Z,30.15
2023-03-11T00:12:44.578Z,30.10
2023-03-11T00:15:13.082Z,32.47
2023-03-11T00:17:41.483Z,30.27
2023-03-11T00:20:18.196Z,29.70
2023-03-11T00:22:46.757Z,35.90
2023-03-11T00:25:15.319Z,34.10
2023-03-11T00:27:43.784Z,32.72
2023-03-11T00:30:13.625Z,31.23
2023-03-11T00:32:41.706Z,38.17
2023-03-11T00:35:23.961Z,36.67
2023-03-11T00:37:55.868Z,39.90
2023-03-11T00:40:25.718Z,33.08
2023-03-11T00:42:53.722Z,41.42
2023-03-11T00:45:22.233Z,35.97
2023-03-11T00:47:50.981Z,37.72
2023-03-11T00:50:22.209Z,27.63
2023-03-11T00:52:50.984Z,28.02
2023-03-11T00:55:20.855Z,29.50
2023-03-11T00:57:51.894Z,28.27
2023-03-11T01:00:23.736Z,30.70
2023-03-11T01:02:52.381Z,27.05
2023-03-11T01:05:23.278Z,27.13
2023-03-11T01:07:51.270Z,29.50
2023-03-11T01:10:19.677Z,33.00
2023-03-11T01:12:47.734Z,24.23
2023-03-11T01:15:19.770Z,24.15
2023-03-11T01:17:47.942Z,23.65
2023-03-11T01:20:16.106Z,28.65
2023-03-11T01:22:47.325Z,26.88
2023-03-11T01:25:17.435Z,23.15
2023-03-11T01:27:46.355Z,27.70
2023-03-11T01:30:16.453Z,29.10
2023-03-11T01:32:45.190Z,27.92
2023-03-11T01:35:15.621Z,18.90
2023-03-11T01:37:44.133Z,24.02
2023-03-11T01:40:18.112Z,28.08
2023-03-11T01:42:46.319Z,21.00
2023-03-11T01:45:40.862Z,26.65
2023-03-11T01:48:11.406Z,29.63
2023-03-11T01:50:43.744Z,26.02
2023-03-11T01:53:13.711Z,28.70
2023-03-11T01:55:45.283Z,27.02
2023-03-11T01:58:19.341Z,31.17
2023-03-11T02:00:47.751Z,31.50
2023-03-11T02:03:21.839Z,22.90
2023-03-11T02:05:51.770Z,25.27
2023-03-11T02:08:19.797Z,23.02
2023-03-11T02:10:52.455Z,29.70
2023-03-11T02:13:21.042Z,25.13
2023-03-11T02:15:49.136Z,20.70
2023-03-11T02:18:20.592Z,27.38
2023-03-11T02:20:55.134Z,19.23
2023-03-11T02:23:27.592Z,27.98
2023-03-11T02:26:04.956Z,21.23
2023-03-11T02:28:36.249Z,21.70
2023-03-11T02:31:04.687Z,21.05
2023-03-11T02:33:34.938Z,26.80
2023-03-11T02:36:03.141Z,24.92
2023-03-11T02:38:31.489Z,25.10
2023-03-11T02:41:01.904Z,20.52
2023-03-11T02:43:37.770Z,21.52
2023-03-11T02:46:07.496Z,22.30
2023-03-11T02:48:36.883Z,22.48
2023-03-11T02:51:05.293Z,25.48
2023-03-11T02:53:38.103Z,26.08
2023-03-11T02:56:07.093Z,25.77
2023-03-11T02:58:37.321Z,26.00
2023-03-11T03:01:05.666Z,25.40
2023-03-11T03:03:33.771Z,22.27
2023-03-11T03:06:02.122Z,24.88
2023-03-11T03:08:30.082Z,22.88
2023-03-11T03:11:00.058Z,27.52
2023-03-11T03:13:28.350Z,19.00
2023-03-11T03:15:59.351Z,25.35
2023-03-11T03:18:28.006Z,32.42
2023-03-11T03:20:55.972Z,27.10
2023-03-11T03:23:24.491Z,19.50
2023-03-11T03:25:52.436Z,20.58
2023-03-11T03:28:20.704Z,27.08
2023-03-11T03:30:48.722Z,18.33
2023-03-11T03:33:18.282Z,24.30
2023-03-11T03:35:47.140Z,19.02
2023-03-11T03:38:22.193Z,27.27
2023-03-11T03:40:52.761Z,22.85
2023-03-11T03:43:22.378Z,23.83
2023-03-11T03:45:57.086Z,20.38
2023-03-11T03:48:29.542Z,27.48
2023-03-11T03:51:02.642Z,20.38
2023-03-11T03:53:30.681Z,22.67
2023-03-11T03:56:02.225Z,17.50
2023-03-11T03:58:31.572Z,21.30
2023-03-11T04:01:00.668Z,24.95
2023-03-11T04:03:31.080Z,22.50
2023-03-11T04:06:11.969Z,21.20
2023-03-11T04:08:40.775Z,21.10
2023-03-11T04:11:10.188Z,24.10
2023-03-11T04:13:38.169Z,22.13
2023-03-11T04:16:08.376Z,22.92
2023-03-11T04:18:38.534Z,19.42
2023-03-11T04:21:08.355Z,27.58
2023-03-11T04:23:36.435Z,18.90
2023-03-11T04:26:05.088Z,23.15
2023-03-11T04:28:33.494Z,17.73
2023-03-11T04:31:01.532Z,20.30
2023-03-11T04:33:31.904Z,23.02
2023-03-11T04:36:04.760Z,23.30
2023-03-11T04:38:33.660Z,17.35
2023-03-11T04:41:02.064Z,22.55
2023-03-11T04:43:30.929Z,28.67
2023-03-11T04:45:58.918Z,17.98
2023-03-11T04:48:27.898Z,29.33
2023-03-11T04:50:56.250Z,21.95
2023-03-11T04:53:26.719Z,21.85
2023-03-11T04:55:54.855Z,28.60
2023-03-11T04:58:23.972Z,18.85
2023-03-11T05:00:53.116Z,22.65
2023-03-11T05:03:22.145Z,24.55
2023-03-11T05:05:50.570Z,22.98
2023-03-11T05:08:20.713Z,23.13
2023-03-11T05:10:51.230Z,23.25
2023-03-11T05:13:19.523Z,20.95
2023-03-11T05:15:47.902Z,20.58
2023-03-11T05:18:17.353Z,22.13
2023-03-11T05:20:45.927Z,30.65
2023-03-11T05:23:15.344Z,24.15
2023-03-11T05:25:43.522Z,22.27
2023-03-11T05:28:13.095Z,25.65
2023-03-11T05:30:46.905Z,26.80
2023-03-11T05:33:15.134Z,23.83
2023-03-11T05:35:43.511Z,20.85
2023-03-11T05:38:11.595Z,19.98
2023-03-11T05:40:39.487Z,16.70
2023-03-11T05:43:07.429Z,22.48
2023-03-11T05:45:40.759Z,19.50
2023-03-11T05:48:08.811Z,17.08
2023-03-11T05:50:39.180Z,23.83
2023-03-11T05:53:07.775Z,25.65
2023-03-11T05:55:45.925Z,20.05
2023-03-11T05:58:13.980Z,29.10
2023-03-11T06:00:43.463Z,24.20
2023-03-11T06:03:11.515Z,21.63
2023-03-11T06:05:50.030Z,19.75
2023-03-11T06:08:19.637Z,19.65
2023-03-11T06:10:48.992Z,22.67
2023-03-11T06:13:19.017Z,25.45
2023-03-11T06:15:51.827Z,19.50
2023-03-11T06:18:21.899Z,20.38
2023-03-11T06:20:49.950Z,24.10
2023-03-11T06:23:17.804Z,16.85
2023-03-11T06:25:47.308Z,20.23
2023-03-11T06:28:15.216Z,23.00
2023-03-11T06:30:45.259Z,25.00
2023-03-11T06:33:17.326Z,20.95
2023-03-11T06:35:45.854Z,29.30
2023-03-11T06:38:13.727Z,24.88
2023-03-11T06:40:42.111Z,23.75
2023-03-11T06:43:10.393Z,23.33
2023-03-11T06:45:41.178Z,22.95
2023-03-11T06:48:10.134Z,26.75
2023-03-11T06:50:40.279Z,24.23
2023-03-11T06:53:08.222Z,27.75
2023-03-11T06:55:37.111Z,25.63
2023-03-11T06:58:05.513Z,30.67
2023-03-11T07:00:34.146Z,27.55
2023-03-11T07:03:03.718Z,22.90
2023-03-11T07:05:32.237Z,23.20
2023-03-11T07:08:06.911Z,27.45
2023-03-11T07:10:35.798Z,19.88
2023-03-11T07:13:03.671Z,26.90
2023-03-11T07:15:31.798Z,23.88
2023-03-11T07:17:59.554Z,26.48
2023-03-11T07:20:28.285Z,26.40
2023-03-11T07:22:55.961Z,27.85
2023-03-11T07:25:25.738Z,26.70
2023-03-11T07:27:53.642Z,26.10
2023-03-11T07:30:21.551Z,22.50
2023-03-11T07:32:49.440Z,24.38
2023-03-11T07:35:17.704Z,30.25
2023-03-11T07:37:45.639Z,26.17
2023-03-11T07:40:13.935Z,23.92
2023-03-11T07:42:43.130Z,26.48
2023-03-11T07:45:12.250Z,24.05
2023-03-11T07:47:40.222Z,29.02
2023-03-11T07:50:08.722Z,21.35
2023-03-11T07:52:36.641Z,27.23
2023-03-11T07:55:05.454Z,20.83
2023-03-11T07:57:33.746Z,23.23
2023-03-11T08:00:03.074Z,29.55
2023-03-11T08:02:39.944Z,25.10
2023-03-11T08:05:08.591Z,31.35
2023-03-11T08:07:36.341Z,21.90
2023-03-11T08:10:04.699Z,26.33
2023-03-11T08:12:32.727Z,27.73
2023-03-11T08:15:00.742Z,31.05
2023-03-11T08:17:32.416Z,26.55
2023-03-11T08:20:00.336Z,26.55
2023-03-11T08:22:28.451Z,29.30
2023-03-11T08:24:56.952Z,21.67
2023-03-11T08:27:24.806Z,22.67
2023-03-11T08:29:52.933Z,26.20
2023-03-11T08:32:22.646Z,24.65
2023-03-11T08:34:52.032Z,30.75
2023-03-11T08:37:20.151Z,18.95
2023-03-11T08:39:48.026Z,24.55
2023-03-11T08:42:16.445Z,23.02
2023-03-11T08:44:44.376Z,26.65
2023-03-11T08:47:13.365Z,29.60
2023-03-11T08:49:41.531Z,31.73
2023-03-11T08:52:10.823Z,25.17
2023-03-11T08:54:39.036Z,25.50
2023-03-11T08:57:07.152Z,21.48
2023-03-11T08:59:36.518Z,23.80
2023-03-11T09:02:05.071Z,22.02
2023-03-11T09:04:33.083Z,21.10
2023-03-11T09:07:01.023Z,23.90
2023-03-11T09:09:30.610Z,22.88
2023-03-11T09:11:58.659Z,22.08
2023-03-11T09:14:26.939Z,24.70
2023-03-11T09:16:54.901Z,22.17
2023-03-11T09:19:22.820Z,18.30
2023-03-11T09:21:50.749Z,21.95
2023-03-11T09:24:18.764Z,23.60
2023-03-11T09:26:48.483Z,20.15
2023-03-11T09:29:16.413Z,27.40
2023-03-11T09:31:44.426Z,20.48
2023-03-11T09:34:15.121Z,25.70
2023-03-11T09:36:44.573Z,24.83
2023-03-11T09:39:12.431Z,31.55
2023-03-11T09:41:57.480Z,24.85
2023-03-11T09:44:33.244Z,22.55
2023-03-11T09:47:20.178Z,23.75
2023-03-11T09:50:06.743Z,23.80
2023-03-11T09:52:44.398Z,24.20
2023-03-11T09:55:31.998Z,22.40
2023-03-11T09:58:04.749Z,24.60
2023-03-11T10:00:34.543Z,24.00
2023-03-11T10:03:03.773Z,24.45
2023-03-11T10:05:33.462Z,18.60
2023-03-11T10:08:12.066Z,17.90
2023-03-11T10:10:45.976Z,26.73
2023-03-11T10:13:18.825Z,20.85
2023-03-11T10:16:06.081Z,22.00
2023-03-11T10:18:58.726Z,18.25
2023-03-11T10:21:38.156Z,19.02
2023-03-11T10:24:17.521Z,19.80
2023-03-11T10:26:50.387Z,17.30
2023-03-11T10:29:24.146Z,17.73
2023-03-11T10:31:59.891Z,21.23
2023-03-11T10:34:34.309Z,22.63
2023-03-11T10:37:07.426Z,23.25
2023-03-11T10:39:35.506Z,29.83
2023-03-11T10:42:05.490Z,24.10
2023-03-11T10:44:36.369Z,18.42
2023-03-11T10:47:22.318Z,20.95
2023-03-11T10:49:55.575Z,22.52
2023-03-11T10:52:23.681Z,21.50
2023-03-11T10:55:01.165Z,18.73
2023-03-11T10:57:33.933Z,23.50
2023-03-11T11:00:10.194Z,19.77
2023-03-11T11:02:49.115Z,81.80
2023-03-11T11:05:28.801Z,21.52
2023-03-11T11:08:05.690Z,17.50
2023-03-11T11:10:35.392Z,22.65
2023-03-11T11:13:17.319Z,18.27
2023-03-11T11:15:55.056Z,20.20
2023-03-11T11:18:27.189Z,19.85
2023-03-11T11:21:01.234Z,21.02
2023-03-11T11:23:34.890Z,20.20
2023-03-11T11:26:05.345Z,19.80
2023-03-11T11:28:34.262Z,16.73
2023-03-11T11:31:26.854Z,20.92
2023-03-11T11:33:56.847Z,18.65
2023-03-11T11:36:30.043Z,15.45
2023-03-11T11:38:59.118Z,21.75
2023-03-11T11:41:29.571Z,20.73
2023-03-11T11:44:00.397Z,21.27
2023-03-11T11:46:35.314Z,21.52
2023-03-11T11:49:17.715Z,22.45
2023-03-11T11:51:51.355Z,23.80
2023-03-11T11:54:25.667Z,16.90
2023-03-11T11:56:55.424Z,20.55
2023-03-11T11:59:24.854Z,18.30
2023-03-11T12:02:05.402Z,18.05
2023-03-11T12:04:46.228Z,17.88
2023-03-11T12:07:36.928Z,18.00
2023-03-11T12:10:23.416Z,21.48
2023-03-11T12:13:33.776Z,23.25
2023-03-11T12:16:07.417Z,20.48
2023-03-11T12:18:39.830Z,43.92
2023-03-11T12:21:23.996Z,31.50
2023-03-11T12:24:04.601Z,21.05
2023-03-11T12:26:38.023Z,24.55
2023-03-11T12:29:15.727Z,25.50
2023-03-11T12:31:44.773Z,20.70
2023-03-11T12:34:15.437Z,24.75
2023-03-11T12:36:47.225Z,23.13
2023-03-11T12:39:28.924Z,23.27
2023-03-11T12:42:38.854Z,23.58
2023-03-11T12:45:36.295Z,21.13
2023-03-11T12:48:33.034Z,21.73
2023-03-11T12:51:01.804Z,24.27
2023-03-11T12:53:46.586Z,18.73
2023-03-11T12:56:36.119Z,24.30
2023-03-11T12:59:20.034Z,26.27
2023-03-11T13:02:14.876Z,25.65
2023-03-11T13:04:57.007Z,18.92
2023-03-11T13:07:49.093Z,22.85
2023-03-11T13:10:36.586Z,22.40
2023-03-11T13:13:22.818Z,23.02
2023-03-11T13:15:51.405Z,24.03
2023-03-11T13:18:25.020Z,19.02
2023-03-11T13:20:58.461Z,24.70
2023-03-11T13:23:37.999Z,20.50
2023-03-11T13:26:41.299Z,21.45
2023-03-11T13:29:40.115Z,20.35
2023-03-11T13:32:45.998Z,23.55
2023-03-11T13:35:30.312Z,19.67
2023-03-11T13:38:18.680Z,22.63
2023-03-11T13:40:47.689Z,16.73
2023-03-11T13:43:19.777Z,22.70
2023-03-11T13:45:53.363Z,30.73
2023-03-11T13:48:27.166Z,23.30
2023-03-11T13:51:00.675Z,17.08
2023-03-11T13:53:32.877Z,26.35
2023-03-11T13:56:00.922Z,24.42
2023-03-11T13:58:30.401Z,17.98
2023-03-11T14:01:00.350Z,26.48
2023-03-11T14:03:34.108Z,24.45
2023-03-11T14:06:04.067Z,21.02
2023-03-11T14:08:33.283Z,18.95
2023-03-11T14:11:02.601Z,22.88
2023-03-11T14:13:34.290Z,18.75
2023-03-11T14:16:07.608Z,20.35
2023-03-11T14:18:41.087Z,18.52
2023-03-11T14:21:14.559Z,20.48
2023-03-11T14:23:44.579Z,25.80
2023-03-11T14:26:16.103Z,22.13
2023-03-11T14:28:48.757Z,20.40
2023-03-11T14:31:32.024Z,17.00
2023-03-11T14:34:05.157Z,22.10
2023-03-11T14:36:41.848Z,24.15
2023-03-11T14:42:03.425Z,25.33
2023-03-11T14:44:35.821Z,18.05
2023-03-11T14:47:10.131Z,20.30
2023-03-11T14:49:39.888Z,18.20
2023-03-11T14:52:14.205Z,17.65
2023-03-11T14:54:43.521Z,19.02
2023-03-11T14:57:21.005Z,19.13
2023-03-11T14:59:53.572Z,24.08
2023-03-11T15:02:36.006Z,20.40
2023-03-11T15:05:09.554Z,18.85
2023-03-11T15:07:38.477Z,16.73
2023-03-11T15:10:20.983Z,21.98
2023-03-11T15:12:50.271Z,22.05
2023-03-11T15:15:28.211Z,20.70
2023-03-11T15:17:59.167Z,18.27
2023-03-11T15:20:31.332Z,20.35
2023-03-11T15:23:01.777Z,21.38
2023-03-11T15:25:33.576Z,22.20
2023-03-11T15:28:25.484Z,27.98
2023-03-11T15:31:15.321Z,24.80
2023-03-11T15:33:44.075Z,17.90
2023-03-11T15:36:31.855Z,21.42
2023-03-11T15:39:18.840Z,23.48
2023-03-11T15:41:57.511Z,20.73
2023-03-11T15:44:28.799Z,19.38
2023-03-11T15:47:01.326Z,19.05
2023-03-11T15:49:29.994Z,20.75
2023-03-11T15:52:01.483Z,23.23
2023-03-11T15:54:29.827Z,24.13
2023-03-11T15:56:59.564Z,21.85
2023-03-11T15:59:29.281Z,22.50
2023-03-11T16:01:59.766Z,20.08
2023-03-11T16:04:27.796Z,22.92
2023-03-11T16:07:07.453Z,21.77
2023-03-11T16:09:36.604Z,19.95
2023-03-11T16:12:15.089Z,28.63
2023-03-11T16:14:43.201Z,42.72
2023-03-11T16:17:15.686Z,66.57
2023-03-11T16:19:44.830Z,47.58
2023-03-11T16:22:18.146Z,36.60
2023-03-11T16:24:48.455Z,36.08
2023-03-11T16:27:18.332Z,46.97
2023-03-11T16:29:46.887Z,27.33
2023-03-11T16:32:16.468Z,31.10
2023-03-11T16:34:44.808Z,32.90
2023-03-11T16:37:16.808Z,23.30
2023-03-11T16:39:44.923Z,27.02
2023-03-11T16:42:13.222Z,24.90
2023-03-11T16:44:41.228Z,31.10
2023-03-11T16:47:09.346Z,29.42
2023-03-11T16:49:39.230Z,32.03
2023-03-11T16:52:07.539Z,27.33
2023-03-11T16:54:35.923Z,23.90
2023-03-11T16:57:04.334Z,32.22
2023-03-11T16:59:32.474Z,30.10
2023-03-11T17:02:00.591Z,28.25
2023-03-11T17:04:28.838Z,28.25
2023-03-11T17:06:58.354Z,29.95
2023-03-11T17:09:27.217Z,24.75
2023-03-11T17:11:55.157Z,26.13
2023-03-11T17:14:26.041Z,31.55
2023-03-11T17:16:54.436Z,27.10
2023-03-11T17:19:24.455Z,32.50
2023-03-11T17:21:52.640Z,30.00
2023-03-11T17:24:22.160Z,39.05
2023-03-11T17:26:50.311Z,38.75
2023-03-11T17:29:19.424Z,34.92
2023-03-11T17:31:47.907Z,28.42
2023-03-11T17:34:16.301Z,33.15
2023-03-11T17:36:44.465Z,29.63
2023-03-11T17:39:12.591Z,24.58
2023-03-11T17:41:42.343Z,34.10
2023-03-11T17:44:12.842Z,30.00
2023-03-11T17:46:41.480Z,25.50
2023-03-11T17:49:14.173Z,33.20
2023-03-11T17:51:42.535Z,23.25
2023-03-11T17:54:10.530Z,29.38
2023-03-11T17:56:39.167Z,35.42
2023-03-11T17:59:08.578Z,29.52
2023-03-11T18:01:36.630Z,40.03
2023-03-11T18:04:05.185Z,112.38
2023-03-11T18:06:33.800Z,146.43
2023-03-11T18:09:01.791Z,91.00
2023-03-11T18:11:30.258Z,78.93
2023-03-11T18:13:58.875Z,53.17
2023-03-11T18:16:30.060Z,38.78
2023-03-11T18:18:58.072Z,39.53
2023-03-11T18:21:28.455Z,42.15
2023-03-11T18:23:57.736Z,34.22
2023-03-11T18:26:27.242Z,34.85
2023-03-11T18:28:55.892Z,33.63
2023-03-11T18:31:25.662Z,31.35
2023-03-11T18:33:57.567Z,27.48
2023-03-11T18:36:27.645Z,73.35
2023-03-11T18:38:57.288Z,38.45
2023-03-11T18:41:26.496Z,53.30
2023-03-11T18:43:55.195Z,57.78
2023-03-11T18:46:23.495Z,50.05
2023-03-11T18:48:54.563Z,45.20
2023-03-11T18:51:22.655Z,38.17
2023-03-11T18:53:50.657Z,37.25
2023-03-11T18:56:19.244Z,34.83
2023-03-11T18:58:47.424Z,32.70
2023-03-11T19:01:17.744Z,28.35
2023-03-11T19:03:50.486Z,34.83
2023-03-11T19:06:21.026Z,32.78
2023-03-11T19:08:49.444Z,25.02
2023-03-11T19:11:18.863Z,27.67
2023-03-11T19:13:48.156Z,29.00
2023-03-11T19:16:17.963Z,34.55
2023-03-11T19:18:46.330Z,31.42
2023-03-11T19:21:15.588Z,26.45
2023-03-11T19:23:45.921Z,34.25
2023-03-11T19:26:14.278Z,35.67
2023-03-11T19:28:42.449Z,52.00
2023-03-11T19:31:10.713Z,82.18
2023-03-11T19:33:38.647Z,110.43
2023-03-11T19:36:08.250Z,86.68
2023-03-11T19:38:36.707Z,69.22
2023-03-11T19:41:08.464Z,53.08
2023-03-11T19:43:38.915Z,42.10
2023-03-11T19:46:08.519Z,42.78
2023-03-11T19:48:36.512Z,36.05
2023-03-11T19:51:06.262Z,43.60
2023-03-11T19:53:35.338Z,38.97
2023-03-11T19:56:05.064Z,29.45
2023-03-11T19:58:34.884Z,34.80
2023-03-11T20:01:03.204Z,29.05
2023-03-11T20:03:31.381Z,33.17
2023-03-11T20:06:05.296Z,32.13
2023-03-11T20:08:36.901Z,38.28
2023-03-11T20:11:06.542Z,32.55
2023-03-11T20:13:37.164Z,29.50
2023-03-11T20:16:07.154Z,27.50
2023-03-11T20:18:35.740Z,28.60
2023-03-11T20:21:06.792Z,31.45
2023-03-11T20:23:35.234Z,32.50
2023-03-11T20:26:06.778Z,34.70
2023-03-11T20:28:36.430Z,32.22
2023-03-11T20:31:10.233Z,33.05
2023-03-11T20:33:39.260Z,32.13
2023-03-11T20:36:08.869Z,34.38
2023-03-11T20:38:37.299Z,31.20
2023-03-11T20:41:09.965Z,31.48
2023-03-11T20:43:40.433Z,31.67
2023-03-11T20:46:10.090Z,35.00
2023-03-11T20:51:53.052Z,29.60
2023-03-11T20:54:21.270Z,29.63
2023-03-11T20:56:51.059Z,32.85
2023-03-11T20:59:21.274Z,30.88
2023-03-11T21:01:49.724Z,32.88
2023-03-11T21:04:17.985Z,34.13
2023-03-11T21:06:50.292Z,38.75
2023-03-11T21:09:19.489Z,37.83
2023-03-11T21:11:48.208Z,30.83
2023-03-11T21:14:17.792Z,36.78
2023-03-11T21:16:47.419Z,36.00
2023-03-11T21:19:15.732Z,31.95
2023-03-11T21:21:44.317Z,32.00
2023-03-11T21:24:12.867Z,32.83
2023-03-11T21:26:41.065Z,26.05
2023-03-11T21:29:09.492Z,28.02
2023-03-11T21:31:37.700Z,26.42
2023-03-11T21:34:07.444Z,34.25
2023-03-11T21:36:36.920Z,30.27
2023-03-11T21:39:05.083Z,29.58
2023-03-11T21:41:33.622Z,28.83
2023-03-11T21:44:01.987Z,33.97
2023-03-11T21:46:32.083Z,27.63
2023-03-11T21:49:01.632Z,24.55
2023-03-11T21:51:32.238Z,25.98
2023-03-11T21:54:01.407Z,23.73
2023-03-11T21:56:29.754Z,29.17
2023-03-11T21:58:58.249Z,29.30
2023-03-11T22:01:29.859Z,32.40
2023-03-11T22:03:58.248Z,28.70
2023-03-11T22:06:27.037Z,28.52
2023-03-11T22:08:58.296Z,27.55
2023-03-11T22:11:27.402Z,29.10
2023-03-11T22:13:57.761Z,30.33
2023-03-11T22:16:26.469Z,29.42
2023-03-11T22:18:54.756Z,26.48
2023-03-11T22:21:23.550Z,30.73
2023-03-11T22:23:51.585Z,29.05
2023-03-11T22:26:21.135Z,22.42
2023-03-11T22:28:49.150Z,27.63
2023-03-11T22:31:18.857Z,29.05
2023-03-11T22:33:47.867Z,25.55
2023-03-11T22:36:15.896Z,30.48
2023-03-11T22:38:45.416Z,25.10
2023-03-11T22:41:14.522Z,25.02
2023-03-11T22:43:44.598Z,31.80
2023-03-11T22:46:12.892Z,23.98
2023-03-11T22:48:41.394Z,34.38
2023-03-11T22:51:09.704Z,31.98
2023-03-11T22:53:38.121Z,24.17
2023-03-11T22:56:11.023Z,24.30
2023-03-11T22:58:39.462Z,28.35
2023-03-11T23:01:10.748Z,24.77
2023-03-11T23:03:39.368Z,19.80
2023-03-11T23:06:11.292Z,25.08
2023-03-11T23:08:39.317Z,21.70
2023-03-11T23:11:09.655Z,28.38
2023-03-11T23:13:38.687Z,24.65
2023-03-11T23:16:11.328Z,21.88
2023-03-11T23:18:39.617Z,21.48
2023-03-11T23:21:15.986Z,28.25
2023-03-11T23:23:44.138Z,24.58
2023-03-11T23:26:13.342Z,29.33
2023-03-11T23:28:42.080Z,26.00
2023-03-11T23:31:14.526Z,23.23
2023-03-11T23:33:43.355Z,23.02
2023-03-11T23:36:14.885Z,16.98
2023-03-11T23:38:51.531Z,29.65
2023-03-11T23:43:48.287Z,21.15
2023-03-11T23:46:17.808Z,23.05
2023-03-11T23:48:45.904Z,23.92
2023-03-11T23:51:14.343Z,25.17
2023-03-11T23:53:42.438Z,25.90
2023-03-11T23:56:12.570Z,21.13
2023-03-11T23:58:41.239Z,23.95
